createdAt,value
2023-08-12T00:00:46.199Z,59.86
2023-08-12T00:03:34.321Z,59.03
2023-08-12T00:06:02.720Z,60.20
2023-08-12T00:08:30.158Z,61.66
2023-08-12T00:10:57.602Z,63.24
2023-08-12T00:13:25.618Z,63.81
2023-08-12T00:15:54.210Z,62.32
2023-08-12T00:18:23.107Z,60.82
2023-08-12T00:20:57.688Z,59.45
2023-08-12T00:23:26.148Z,59.13
2023-08-12T00:25:53.551Z,60.61
2023-08-12T00:28:21.206Z,62.16
2023-08-12T00:30:50.120Z,64.24
2023-08-12T00:33:18.981Z,63.48
2023-08-12T00:35:46.663Z,62.56
2023-08-12T00:38:14.493Z,61.47
2023-08-12T00:40:42.547Z,60.42
2023-08-12T00:43:10.964Z,59.61
2023-08-12T00:45:38.413Z,58.98
2023-08-12T00:48:06.819Z,60.44
2023-08-12T00:50:40.569Z,61.77
2023-08-12T00:53:09.845Z,63.52
2023-08-12T00:55:38.266Z,63.66
2023-08-12T00:58:05.855Z,62.36
2023-08-12T01:00:34.984Z,61.23
2023-08-12T01:03:04.296Z,60.39
2023-08-12T01:05:31.878Z,59.68
2023-08-12T01:08:00.098Z,58.89
2023-08-12T01:10:34.956Z,59.92
2023-08-12T01:13:28.313Z,61.56
2023-08-12T01:15:57.411Z,63.25
2023-08-12T01:18:25.947Z,63.90
2023-08-12T01:20:58.996Z,62.77
2023-08-12T01:23:26.727Z,61.99
2023-08-12T01:25:54.809Z,61.13
2023-08-12T01:28:22.064Z,60.29
2023-08-12T01:31:05.588Z,59.31
2023-08-12T01:33:57.703Z,59.38
2023-08-12T01:36:27.910Z,61.13
2023-08-12T01:39:01.421Z,62.94
2023-08-12T01:41:30.153Z,64.03
2023-08-12T01:43:58.298Z,62.89
2023-08-12T01:46:26.568Z,61.54
2023-08-12T01:48:54.238Z,60.67
2023-08-12T01:51:21.640Z,59.95
2023-08-12T01:53:48.892Z,59.07
2023-08-12T01:56:16.452Z,59.51
2023-08-12T01:58:43.621Z,61.19
2023-08-12T02:01:10.942Z,62.86
2023-08-12T02:03:39.538Z,63.79
2023-08-12T02:06:08.428Z,62.72
2023-08-12T02:08:35.772Z,61.51
2023-08-12T02:11:03.362Z,60.54
2023-08-12T02:13:31.280Z,59.61
2023-08-12T02:15:58.705Z,58.90
2023-08-12T02:18:26.172Z,60.28
2023-08-12T02:20:53.369Z,62.04
2023-08-12T02:23:20.508Z,63.76
2023-08-12T02:25:48.250Z,63.27
2023-08-12T02:28:16.584Z,62.05
2023-08-12T02:30:45.056Z,61.06
2023-08-12T02:33:12.343Z,60.33
2023-08-12T02:35:40.997Z,59.59
2023-08-12T02:38:08.924Z,59.04
2023-08-12T02:40:36.851Z,60.27
2023-08-12T02:43:05.233Z,61.95
2023-08-12T02:45:36.449Z,63.92
2023-08-12T02:48:04.678Z,63.61
2023-08-12T02:50:32.549Z,62.38
2023-08-12T02:52:59.715Z,61.22
2023-08-12T02:55:28.083Z,60.32
2023-08-12T02:57:55.944Z,59.56
2023-08-12T03:00:25.474Z,59.25
2023-08-12T03:02:52.768Z,60.70
2023-08-12T03:05:21.733Z,62.40
2023-08-12T03:07:50.581Z,64.07
2023-08-12T03:10:19.149Z,63.35
2023-08-12T03:12:46.689Z,62.15
2023-08-12T03:15:14.502Z,61.11
2023-08-12T03:17:42.761Z,60.29
2023-08-12T03:20:17.448Z,59.61
2023-08-12T03:22:44.993Z,59.09
2023-08-12T03:25:15.520Z,60.53
2023-08-12T03:27:43.376Z,62.25
2023-08-12T03:30:11.448Z,63.97
2023-08-12T03:32:39.839Z,63.27
2023-08-12T03:35:07.599Z,62.02
2023-08-12T03:37:35.903Z,61.09
2023-08-12T03:40:04.356Z,60.28
2023-08-12T03:42:32.084Z,59.60
2023-08-12T03:44:59.752Z,59.03
2023-08-12T03:47:30.660Z,60.37
2023-08-12T03:49:58.024Z,62.07
2023-08-12T03:52:27.251Z,63.93
2023-08-12T03:54:55.477Z,63.45
2023-08-12T03:57:22.745Z,62.16
2023-08-12T03:59:50.140Z,61.17
2023-08-12T04:02:17.338Z,60.35
2023-08-12T04:04:47.015Z,59.49
2023-08-12T04:07:14.922Z,59.15
2023-08-12T04:09:42.566Z,60.87
2023-08-12T04:12:10.877Z,62.61
2023-08-12T04:14:41.477Z,63.84
2023-08-12T04:17:09.698Z,62.84
2023-08-12T04:19:37.623Z,61.67
2023-08-12T04:22:06.315Z,60.69
2023-08-12T04:24:34.676Z,59.74
2023-08-12T04:27:02.355Z,58.83
2023-08-12T04:29:30.349Z,59.87
2023-08-12T04:31:57.675Z,61.36
2023-08-12T04:34:24.952Z,62.96
2023-08-12T04:36:53.106Z,63.76
2023-08-12T04:39:20.416Z,62.57
2023-08-12T04:41:49.016Z,61.50
2023-08-12T04:44:16.686Z,60.42
2023-08-12T04:46:44.928Z,59.02
2023-08-12T04:49:12.771Z,59.08
2023-08-12T04:51:42.600Z,60.88
2023-08-12T04:54:10.780Z,62.60
2023-08-12T04:56:38.779Z,63.95
2023-08-12T04:59:07.505Z,62.66
2023-08-12T05:01:42.929Z,61.26
2023-08-12T05:04:19.029Z,59.90
2023-08-12T05:06:52.956Z,58.39
2023-08-12T05:09:20.707Z,59.67
2023-08-12T05:12:02.323Z,61.37
2023-08-12T05:14:29.993Z,63.13
2023-08-12T05:16:57.400Z,63.40
2023-08-12T05:19:34.680Z,61.60
2023-08-12T05:22:02.001Z,60.07
2023-08-12T05:24:29.259Z,58.85
2023-08-12T05:26:57.918Z,59.18
2023-08-12T05:29:25.514Z,60.39
2023-08-12T05:31:57.110Z,61.46
2023-08-12T05:34:27.808Z,62.65
2023-08-12T05:36:55.042Z,63.00
2023-08-12T05:39:22.588Z,61.46
2023-08-12T05:41:52.715Z,59.73
2023-08-12T05:44:25.669Z,58.58
2023-08-12T05:46:55.742Z,59.47
2023-08-12T05:49:39.592Z,59.98
2023-08-12T05:58:58.556Z,62.15
2023-08-12T06:01:26.347Z,63.51
2023-08-12T06:04:12.950Z,61.57
2023-08-12T06:06:53.618Z,59.61
2023-08-12T06:09:23.358Z,57.45
2023-08-12T06:11:50.627Z,58.09
2023-08-12T06:14:19.104Z,59.08
2023-08-12T06:16:46.426Z,59.72
2023-08-12T06:19:13.641Z,60.29
2023-08-12T06:21:40.818Z,60.36
2023-08-12T06:24:08.078Z,60.68
2023-08-12T06:26:35.417Z,60.96
2023-08-12T06:29:05.688Z,61.57
2023-08-12T06:31:33.488Z,62.57
2023-08-12T06:34:01.818Z,62.84
2023-08-12T06:36:29.726Z,60.86
2023-08-12T06:38:57.923Z,58.45
2023-08-12T06:41:25.360Z,58.40
2023-08-12T06:43:52.950Z,59.21
2023-08-12T06:46:21.237Z,60.22
2023-08-12T06:48:49.134Z,60.81
2023-08-12T06:51:16.444Z,61.24
2023-08-12T06:53:43.926Z,61.33
2023-08-12T06:56:12.169Z,61.23
2023-08-12T06:58:39.624Z,61.17
2023-08-12T07:01:06.998Z,61.12
2023-08-12T07:03:35.017Z,61.22
2023-08-12T07:06:04.039Z,60.71
2023-08-12T07:08:33.141Z,60.73
2023-08-12T07:11:00.520Z,61.00
2023-08-12T07:13:29.343Z,60.81
2023-08-12T07:15:58.012Z,61.44
2023-08-12T07:18:25.955Z,60.00
2023-08-12T07:20:53.524Z,59.87
2023-08-12T07:23:23.167Z,59.60
2023-08-12T07:25:51.249Z,59.02
2023-08-12T07:28:18.490Z,59.59
2023-08-12T07:30:46.439Z,58.89
2023-08-12T07:33:21.022Z,59.57
2023-08-12T07:35:48.315Z,60.84
2023-08-12T07:38:15.878Z,59.69
2023-08-12T07:40:44.199Z,58.94
2023-08-12T07:43:11.510Z,57.79
2023-08-12T07:45:51.390Z,57.67
2023-08-12T07:48:21.921Z,57.75
2023-08-12T07:50:56.926Z,57.24
2023-08-12T07:53:24.306Z,56.36
2023-08-12T07:55:51.921Z,56.10
2023-08-12T07:58:19.653Z,56.24
2023-08-12T08:00:47.047Z,55.49
2023-08-12T08:03:15.930Z,54.34
2023-08-12T08:05:46.153Z,54.86
2023-08-12T08:08:16.665Z,54.70
2023-08-12T08:10:44.016Z,54.24
2023-08-12T08:13:11.232Z,54.42
2023-08-12T08:15:38.940Z,53.42
2023-08-12T08:18:08.334Z,53.08
2023-08-12T08:20:36.015Z,53.52
2023-08-12T08:23:03.468Z,53.51
2023-08-12T08:25:31.835Z,52.96
2023-08-12T08:27:59.424Z,51.75
2023-08-12T08:30:27.091Z,51.04
2023-08-12T08:32:54.613Z,52.00
2023-08-12T08:35:22.786Z,50.78
2023-08-12T08:37:50.727Z,49.74
2023-08-12T08:40:19.985Z,48.52
2023-08-12T08:42:55.560Z,48.82
2023-08-12T08:45:24.199Z,47.73
2023-08-12T08:47:53.273Z,46.46
2023-08-12T08:50:22.313Z,45.62
2023-08-12T08:52:52.337Z,44.83
2023-08-12T08:55:22.672Z,45.70
2023-08-12T08:57:51.207Z,45.38
2023-08-12T09:00:20.532Z,45.17
2023-08-12T09:02:50.673Z,44.37
2023-08-12T09:05:21.077Z,44.26
2023-08-12T09:07:51.249Z,44.24
2023-08-12T09:10:21.505Z,44.09
2023-08-12T09:12:49.102Z,43.69
2023-08-12T09:15:17.833Z,43.31
2023-08-12T09:17:45.387Z,42.19
2023-08-12T09:20:13.251Z,41.99
2023-08-12T09:22:42.009Z,42.29
2023-08-12T09:25:11.191Z,42.42
2023-08-12T09:27:39.040Z,42.13
2023-08-12T09:30:08.270Z,42.18
2023-08-12T09:32:35.880Z,42.96
2023-08-12T09:35:04.578Z,43.51
2023-08-12T09:37:32.636Z,42.33
2023-08-12T09:39:59.956Z,41.89
2023-08-12T09:42:28.656Z,40.72
2023-08-12T09:44:57.680Z,42.64
2023-08-12T09:47:28.100Z,41.87
2023-08-12T09:49:55.676Z,41.97
2023-08-12T09:52:23.130Z,41.68
2023-08-12T09:54:55.685Z,41.92
2023-08-12T09:57:28.452Z,41.78
2023-08-12T09:59:58.441Z,40.61
2023-08-12T10:02:27.953Z,40.13
2023-08-12T10:04:57.534Z,41.52
2023-08-12T10:07:26.130Z,40.90
2023-08-12T10:09:54.473Z,40.57
2023-08-12T10:12:22.845Z,40.10
2023-08-12T10:14:50.045Z,40.23
2023-08-12T10:17:29.587Z,40.23
2023-08-12T10:20:08.442Z,39.40
2023-08-12T10:22:37.099Z,40.94
2023-08-12T10:25:04.745Z,40.91
2023-08-12T10:27:32.099Z,39.59
2023-08-12T10:30:00.125Z,39.43
2023-08-12T10:32:27.827Z,39.49
2023-08-12T10:34:57.187Z,39.19
2023-08-12T10:37:26.197Z,39.46
2023-08-12T10:39:56.385Z,40.40
2023-08-12T10:42:48.958Z,40.64
2023-08-12T10:45:17.834Z,40.94
2023-08-12T10:48:21.581Z,39.94
2023-08-12T10:50:52.979Z,39.56
2023-08-12T10:53:33.817Z,39.16
2023-08-12T10:56:03.574Z,38.51
2023-08-12T10:58:42.092Z,37.96
2023-08-12T11:01:17.443Z,37.77
2023-08-12T11:03:45.299Z,37.66
2023-08-12T11:06:13.213Z,38.03
2023-08-12T11:08:48.289Z,37.09
2023-08-12T11:11:26.013Z,36.83
2023-08-12T11:14:00.373Z,36.88
2023-08-12T11:16:38.110Z,37.86
2023-08-12T11:19:05.551Z,37.23
2023-08-12T11:21:34.320Z,36.70
2023-08-12T11:24:03.176Z,36.42
2023-08-12T11:26:31.102Z,37.90
2023-08-12T11:28:58.308Z,37.41
2023-08-12T11:31:26.598Z,36.75
2023-08-12T11:33:54.592Z,35.73
2023-08-12T11:36:21.803Z,36.08
2023-08-12T11:38:49.993Z,36.14
2023-08-12T11:41:23.774Z,35.19
2023-08-12T11:43:50.906Z,34.48
2023-08-12T11:46:18.097Z,34.79
2023-08-12T11:48:45.340Z,34.46
2023-08-12T11:51:12.969Z,34.59
2023-08-12T11:53:40.508Z,33.99
2023-08-12T11:56:07.832Z,34.03
2023-08-12T11:58:51.362Z,34.63
2023-08-12T12:01:20.069Z,33.70
2023-08-12T12:03:52.152Z,33.14
2023-08-12T12:06:36.966Z,33.77
2023-08-12T12:09:11.294Z,31.17
2023-08-12T12:11:39.104Z,31.31
2023-08-12T12:14:08.353Z,30.67
2023-08-12T12:16:40.450Z,31.12
2023-08-12T12:19:21.202Z,30.27
2023-08-12T12:21:52.846Z,29.38
2023-08-12T12:24:21.377Z,29.43
2023-08-12T12:26:50.130Z,28.89
2023-08-12T12:29:17.629Z,28.78
2023-08-12T12:31:45.144Z,28.91
2023-08-12T12:34:14.850Z,28.67
2023-08-12T12:36:42.781Z,28.03
2023-08-12T12:39:11.302Z,27.95
2023-08-12T12:41:40.359Z,27.42
2023-08-12T12:44:08.329Z,27.48
2023-08-12T12:46:37.632Z,27.12
2023-08-12T12:49:05.529Z,27.43
2023-08-12T12:51:33.882Z,27.30
2023-08-12T12:54:01.527Z,26.11
2023-08-12T12:56:32.464Z,25.70
2023-08-12T12:59:10.971Z,25.10
2023-08-12T13:01:43.674Z,25.20
2023-08-12T13:04:14.348Z,26.05
2023-08-12T13:06:49.874Z,25.24
2023-08-12T13:09:17.814Z,25.68
2023-08-12T13:11:59.376Z,25.63
2023-08-12T13:14:27.034Z,24.25
2023-08-12T13:16:55.354Z,24.34
2023-08-12T13:19:23.116Z,24.86
2023-08-12T13:21:51.471Z,24.50
2023-08-12T13:24:20.890Z,23.79
2023-08-12T13:26:49.284Z,23.35
2023-08-12T13:29:21.267Z,22.99
2023-08-12T13:31:48.706Z,23.39
2023-08-12T13:34:17.022Z,24.03
2023-08-12T13:36:45.486Z,25.57
2023-08-12T13:39:14.754Z,25.96
2023-08-12T13:41:44.187Z,26.91
2023-08-12T13:44:12.878Z,28.32
2023-08-12T13:46:47.664Z,28.44
2023-08-12T13:49:15.485Z,29.37
2023-08-12T13:51:44.245Z,31.84
2023-08-12T13:54:13.819Z,31.23
2023-08-12T13:56:41.272Z,31.53
2023-08-12T13:59:08.932Z,31.16
2023-08-12T14:01:36.704Z,31.25
2023-08-12T14:04:09.481Z,31.70
2023-08-12T14:06:40.787Z,31.95
2023-08-12T14:09:14.406Z,32.10
2023-08-12T14:11:42.254Z,32.88
2023-08-12T14:14:09.817Z,33.00
2023-08-12T14:16:37.922Z,33.74
2023-08-12T14:19:25.331Z,34.35
2023-08-12T14:21:52.650Z,34.15
2023-08-12T14:24:20.244Z,35.95
2023-08-12T14:26:48.334Z,37.09
2023-08-12T14:29:16.075Z,36.89
2023-08-12T14:31:43.319Z,38.62
2023-08-12T14:34:10.454Z,34.82
2023-08-12T14:36:37.608Z,34.38
2023-08-12T14:39:04.855Z,32.18
2023-08-12T14:41:31.976Z,30.64
2023-08-12T14:43:59.099Z,27.80
2023-08-12T14:46:26.480Z,27.43
2023-08-12T14:48:54.652Z,25.65
2023-08-12T14:51:21.849Z,24.44
2023-08-12T14:53:49.074Z,23.62
2023-08-12T14:56:16.800Z,23.60
2023-08-12T14:58:43.947Z,24.35
2023-08-12T15:01:11.410Z,23.72
2023-08-12T15:03:38.617Z,24.69
2023-08-12T15:06:06.552Z,25.11
2023-08-12T15:08:33.972Z,25.16
2023-08-12T15:11:01.256Z,25.75
2023-08-12T15:13:28.352Z,25.82
2023-08-12T15:15:55.808Z,26.13
2023-08-12T15:18:23.640Z,27.83
2023-08-12T15:20:51.454Z,27.79
2023-08-12T15:23:18.626Z,28.66
2023-08-12T15:25:46.287Z,29.06
2023-08-12T15:28:13.934Z,29.42
2023-08-12T15:30:41.210Z,30.24
2023-08-12T15:33:08.517Z,30.72
2023-08-12T15:35:38.634Z,30.89
2023-08-12T15:38:06.102Z,31.27
2023-08-12T15:40:33.601Z,32.01
2023-08-12T15:43:01.270Z,32.31
2023-08-12T15:45:29.265Z,32.89
2023-08-12T15:48:09.367Z,33.30
2023-08-12T15:50:38.790Z,33.88
2023-08-12T15:53:11.114Z,34.01
2023-08-12T15:55:52.737Z,34.54
2023-08-12T15:58:24.771Z,34.77
2023-08-12T16:00:54.157Z,35.35
2023-08-12T16:03:21.849Z,35.58
2023-08-12T16:05:49.601Z,35.93
2023-08-12T16:08:17.643Z,36.52
2023-08-12T16:10:45.125Z,37.89
2023-08-12T16:13:12.562Z,37.93
2023-08-12T16:15:39.970Z,38.50
2023-08-12T16:18:09.276Z,38.32
2023-08-12T16:20:37.629Z,38.69
2023-08-12T16:23:05.431Z,39.32
2023-08-12T16:25:33.080Z,39.18
2023-08-12T16:28:00.645Z,39.15
2023-08-12T16:30:28.448Z,39.57
2023-08-12T16:32:55.750Z,39.48
2023-08-12T16:35:23.153Z,39.34
2023-08-12T16:37:50.412Z,39.60
2023-08-12T16:40:18.921Z,39.82
2023-08-12T16:42:46.139Z,40.25
2023-08-12T16:45:13.854Z,40.29
2023-08-12T16:47:41.216Z,40.94
2023-08-12T16:50:09.067Z,40.78
2023-08-12T16:52:36.239Z,40.86
2023-08-12T16:55:04.658Z,41.35
2023-08-12T16:57:31.872Z,41.66
2023-08-12T16:59:59.093Z,41.78
2023-08-12T17:02:26.399Z,42.44
2023-08-12T17:04:53.507Z,42.58
2023-08-12T17:07:21.013Z,42.78
2023-08-12T17:09:48.199Z,43.36
2023-08-12T17:12:15.859Z,43.80
2023-08-12T17:14:43.337Z,44.47
2023-08-12T17:17:10.509Z,44.78
2023-08-12T17:19:39.485Z,45.70
2023-08-12T17:22:06.747Z,46.08
2023-08-12T17:24:33.950Z,46.32
2023-08-12T17:27:01.204Z,46.54
2023-08-12T17:29:28.417Z,46.59
2023-08-12T17:31:55.628Z,46.87
2023-08-12T17:34:22.947Z,47.06
2023-08-12T17:36:50.241Z,47.49
2023-08-12T17:39:17.921Z,47.80
2023-08-12T17:41:48.119Z,48.54
2023-08-12T17:44:16.400Z,49.61
2023-08-12T17:46:44.715Z,50.32
2023-08-12T17:49:11.994Z,51.06
2023-08-12T17:51:43.340Z,51.34
2023-08-12T17:54:10.760Z,51.90
2023-08-12T17:56:37.948Z,52.35
2023-08-12T17:59:06.127Z,52.05
2023-08-12T18:01:33.450Z,52.55
2023-08-12T18:04:01.862Z,52.88
2023-08-12T18:06:29.289Z,53.21
2023-08-12T18:08:56.548Z,53.62
2023-08-12T18:11:23.824Z,54.19
2023-08-12T18:13:51.238Z,54.48
2023-08-12T18:16:19.143Z,54.40
2023-08-12T18:18:46.436Z,54.03
2023-08-12T18:21:13.621Z,53.79
2023-08-12T18:23:41.579Z,53.97
2023-08-12T18:26:08.781Z,54.26
2023-08-12T18:28:35.992Z,54.45
2023-08-12T18:31:03.167Z,54.52
2023-08-12T18:33:30.357Z,53.80
2023-08-12T18:35:57.457Z,53.82
2023-08-12T18:38:24.785Z,54.10
2023-08-12T18:40:52.305Z,55.27
2023-08-12T18:43:19.503Z,55.58
2023-08-12T18:45:46.739Z,55.42
2023-08-12T18:48:14.003Z,55.72
2023-08-12T18:50:41.112Z,55.59
2023-08-12T18:53:08.292Z,55.73
2023-08-12T18:55:36.035Z,56.14
2023-08-12T18:58:03.354Z,56.14
2023-08-12T19:00:30.551Z,55.31
2023-08-12T19:02:57.733Z,55.18
2023-08-12T19:05:25.072Z,55.32
2023-08-12T19:07:52.282Z,55.42
2023-08-12T19:10:19.520Z,55.56
2023-08-12T19:12:46.752Z,55.76
2023-08-12T19:15:14.541Z,56.01
2023-08-12T19:17:41.806Z,56.96
2023-08-12T19:20:10.524Z,57.95
2023-08-12T19:22:37.836Z,58.52
2023-08-12T19:25:05.547Z,58.85
2023-08-12T19:27:32.766Z,59.14
2023-08-12T19:29:59.896Z,59.25
2023-08-12T19:32:27.133Z,59.33
2023-08-12T19:34:54.362Z,59.88
2023-08-12T19:37:21.845Z,60.79
2023-08-12T19:39:51.966Z,60.95
2023-08-12T19:42:20.342Z,60.37
2023-08-12T19:44:48.090Z,60.19
2023-08-12T19:47:16.304Z,59.03
2023-08-12T19:49:47.863Z,58.16
2023-08-12T19:52:16.662Z,57.95
2023-08-12T19:54:44.169Z,57.65
2023-08-12T19:57:13.333Z,57.32
2023-08-12T19:59:40.934Z,57.24
2023-08-12T20:02:12.891Z,57.27
2023-08-12T20:04:43.082Z,57.17
2023-08-12T20:07:12.648Z,57.22
2023-08-12T20:09:39.958Z,57.35
2023-08-12T20:12:09.077Z,57.43
2023-08-12T20:14:39.018Z,57.53
2023-08-12T20:17:07.193Z,57.62
2023-08-12T20:19:35.544Z,57.59
2023-08-12T20:22:03.166Z,57.65
2023-08-12T20:24:30.427Z,57.74
2023-08-12T20:26:57.914Z,57.90
2023-08-12T20:29:26.119Z,57.84
2023-08-12T20:31:54.181Z,57.91
2023-08-12T20:34:21.481Z,57.80
2023-08-12T20:36:49.227Z,57.77
2023-08-12T20:39:16.557Z,57.81
2023-08-12T20:41:43.769Z,57.73
2023-08-12T20:44:10.965Z,57.74
2023-08-12T20:46:38.303Z,57.87
2023-08-12T20:49:06.129Z,57.89
2023-08-12T20:51:33.320Z,58.03
2023-08-12T20:54:00.567Z,58.00
2023-08-12T20:56:27.992Z,58.10
2023-08-12T20:58:55.165Z,58.01
2023-08-12T21:01:22.424Z,58.23
2023-08-12T21:03:49.650Z,58.14
2023-08-12T21:06:17.030Z,58.18
2023-08-12T21:08:44.187Z,58.17
2023-08-12T21:11:12.163Z,58.27
2023-08-12T21:13:39.398Z,58.24
2023-08-12T21:16:06.701Z,58.40
2023-08-12T21:18:34.198Z,58.47
2023-08-12T21:21:01.469Z,58.59
2023-08-12T21:23:28.636Z,58.67
2023-08-12T21:25:55.809Z,58.72
2023-08-12T21:28:22.988Z,58.58
2023-08-12T21:30:50.193Z,58.87
2023-08-12T21:33:18.109Z,58.71
2023-08-12T21:35:45.256Z,58.58
2023-08-12T21:38:12.456Z,58.59
2023-08-12T21:40:40.236Z,58.69
2023-08-12T21:43:07.556Z,58.64
2023-08-12T21:45:34.833Z,58.66
2023-08-12T21:48:02.164Z,58.74
2023-08-12T21:50:30.959Z,58.89
2023-08-12T21:52:58.803Z,58.75
2023-08-12T21:55:26.079Z,58.75
2023-08-12T21:57:55.579Z,58.95
2023-08-12T22:00:23.871Z,58.88
2023-08-12T22:02:51.100Z,58.85
2023-08-12T22:05:18.580Z,58.83
2023-08-12T22:07:45.879Z,58.90
2023-08-12T22:10:13.173Z,58.96
2023-08-12T22:12:41.632Z,58.89
2023-08-12T22:15:09.525Z,59.08
2023-08-12T22:17:37.263Z,58.92
2023-08-12T22:20:05.077Z,58.92
2023-08-12T22:22:32.304Z,59.01
2023-08-12T22:24:59.453Z,58.69
2023-08-12T22:27:27.199Z,58.92
2023-08-12T22:29:54.370Z,58.91
2023-08-12T22:32:22.152Z,58.66
2023-08-12T22:34:49.350Z,58.41
2023-08-12T22:37:16.571Z,58.11
2023-08-12T22:39:43.744Z,58.02
2023-08-12T22:42:10.908Z,58.19
2023-08-12T22:44:38.137Z,57.84
2023-08-12T22:47:05.697Z,57.63
2023-08-12T22:49:32.959Z,57.42
2023-08-12T22:52:00.283Z,57.36
2023-08-12T22:54:27.608Z,57.66
2023-08-12T22:56:54.754Z,57.58
2023-08-12T22:59:21.924Z,57.79
2023-08-12T23:01:49.077Z,57.83
2023-08-12T23:04:16.401Z,57.83
2023-08-12T23:06:43.576Z,57.92
2023-08-12T23:09:10.808Z,57.92
2023-08-12T23:11:38.296Z,58.05
2023-08-12T23:14:05.532Z,58.12
2023-08-12T23:16:32.902Z,58.03
2023-08-12T23:19:00.227Z,58.03
2023-08-12T23:21:27.367Z,58.12
2023-08-12T23:23:54.587Z,58.18
2023-08-12T23:26:22.015Z,58.43
2023-08-12T23:28:49.190Z,58.54
2023-08-12T23:31:16.341Z,58.69
2023-08-12T23:33:43.572Z,58.86
2023-08-12T23:36:10.753Z,58.96
2023-08-12T23:38:37.879Z,59.03
2023-08-12T23:41:05.152Z,59.43
2023-08-12T23:43:32.584Z,59.58
2023-08-12T23:46:03.283Z,59.79
2023-08-12T23:48:30.631Z,60.18
2023-08-12T23:50:57.869Z,60.12
2023-08-12T23:53:26.156Z,60.46
2023-08-12T23:55:53.436Z,60.73
2023-08-12T23:58:21.347Z,61.04
